createdAt,value
2018-10-07T00:01:44.400Z,15.50
2018-10-07T00:04:12.714Z,15.53
2018-10-07T00:06:41.020Z,15.53
2018-10-07T00:09:09.802Z,15.50
2018-10-07T00:11:38.288Z,15.50
2018-10-07T00:14:06.764Z,15.47
2018-10-07T00:16:35.128Z,15.43
2018-10-07T00:19:03.513Z,15.49
2018-10-07T00:21:31.860Z,15.45
2018-10-07T00:24:00.220Z,15.47
2018-10-07T00:26:28.486Z,15.45
2018-10-07T00:28:56.819Z,15.48
2018-10-07T00:31:25.197Z,15.47
2018-10-07T00:33:53.529Z,15.50
2018-10-07T00:36:21.847Z,15.57
2018-10-07T00:38:50.108Z,15.54
2018-10-07T00:41:18.532Z,15.51
2018-10-07T00:43:46.916Z,15.45
2018-10-07T00:46:15.275Z,15.42
2018-10-07T00:48:43.642Z,15.33
2018-10-07T00:51:12.009Z,15.39
2018-10-07T00:53:40.338Z,15.36
2018-10-07T00:56:08.841Z,15.39
2018-10-07T00:58:37.176Z,15.39
2018-10-07T01:01:05.516Z,15.40
2018-10-07T01:03:33.799Z,15.36
2018-10-07T01:06:02.092Z,15.40
2018-10-07T01:08:30.412Z,15.39
2018-10-07T01:10:58.907Z,15.40
2018-10-07T01:13:27.194Z,15.38
2018-10-07T01:15:55.568Z,15.41
2018-10-07T01:18:23.924Z,15.42
2018-10-07T01:20:52.335Z,15.41
2018-10-07T01:23:20.664Z,15.39
2018-10-07T01:25:48.979Z,15.47
2018-10-07T01:28:17.276Z,15.50
2018-10-07T01:30:45.541Z,15.50
2018-10-07T01:33:13.848Z,15.57
2018-10-07T01:35:42.367Z,15.61
2018-10-07T01:38:10.761Z,15.62
2018-10-07T01:40:39.078Z,15.62
2018-10-07T01:43:07.467Z,15.58
2018-10-07T01:45:35.970Z,15.60
2018-10-07T01:48:04.472Z,15.58
2018-10-07T01:50:32.751Z,15.53
2018-10-07T01:53:01.106Z,15.46
2018-10-07T01:55:29.554Z,15.48
2018-10-07T01:57:57.895Z,15.46
2018-10-07T02:00:26.196Z,15.42
2018-10-07T02:02:54.490Z,15.41
2018-10-07T02:05:22.887Z,15.40
2018-10-07T02:07:51.201Z,15.41
2018-10-07T02:10:19.522Z,15.38
2018-10-07T02:12:47.822Z,15.37
2018-10-07T02:15:22.403Z,15.31
2018-10-07T02:17:50.700Z,15.28
2018-10-07T02:20:18.986Z,15.26
2018-10-07T02:22:47.296Z,15.19
2018-10-07T02:25:15.702Z,15.13
2018-10-07T02:27:44.441Z,15.08
2018-10-07T02:30:12.793Z,15.04
2018-10-07T02:32:41.085Z,14.97
2018-10-07T02:35:09.547Z,14.94
2018-10-07T02:37:38.021Z,14.90
2018-10-07T02:40:06.375Z,14.90
2018-10-07T02:42:34.705Z,14.83
2018-10-07T02:45:03.181Z,14.80
2018-10-07T02:47:31.618Z,14.76
2018-10-07T02:50:00.006Z,14.70
2018-10-07T02:52:33.768Z,14.69
2018-10-07T02:55:02.127Z,14.66
2018-10-07T02:57:30.476Z,14.68
2018-10-07T02:59:58.989Z,14.63
2018-10-07T03:02:27.232Z,14.61
2018-10-07T03:04:55.493Z,14.60
2018-10-07T03:07:23.977Z,14.59
2018-10-07T03:09:52.311Z,14.55
2018-10-07T03:12:20.631Z,14.53
2018-10-07T03:14:48.880Z,14.46
2018-10-07T03:17:17.185Z,14.40
2018-10-07T03:19:45.794Z,14.35
2018-10-07T03:22:14.096Z,14.27
2018-10-07T03:24:42.382Z,14.16
2018-10-07T03:27:10.713Z,14.11
2018-10-07T03:29:39.099Z,14.08
2018-10-07T03:32:07.626Z,14.20
2018-10-07T03:34:36.091Z,14.10
2018-10-07T03:37:04.465Z,13.99
2018-10-07T03:39:32.769Z,13.89
2018-10-07T03:42:01.082Z,13.83
2018-10-07T03:44:29.412Z,13.74
2018-10-07T03:46:57.772Z,13.67
2018-10-07T03:49:26.044Z,13.66
2018-10-07T03:51:54.576Z,13.66
2018-10-07T03:54:23.016Z,13.65
2018-10-07T03:56:51.291Z,13.61
2018-10-07T03:59:19.603Z,13.58
2018-10-07T04:01:48.035Z,13.55
2018-10-07T04:04:16.385Z,13.51
2018-10-07T04:06:44.716Z,13.45
2018-10-07T04:09:13.312Z,13.44
2018-10-07T04:11:42.999Z,13.38
2018-10-07T04:14:12.521Z,13.29
2018-10-07T04:16:40.887Z,13.30
2018-10-07T04:19:10.246Z,13.27
2018-10-07T04:21:38.535Z,13.24
2018-10-07T04:24:07.003Z,13.19
2018-10-07T04:26:35.279Z,13.20
2018-10-07T04:29:03.563Z,13.20
2018-10-07T04:31:32.037Z,13.14
2018-10-07T04:34:00.327Z,13.17
2018-10-07T04:36:28.910Z,13.10
2018-10-07T04:38:57.167Z,13.11
2018-10-07T04:41:25.576Z,13.08
2018-10-07T04:43:53.918Z,13.04
2018-10-07T04:46:22.504Z,13.02
2018-10-07T04:48:50.688Z,12.99
2018-10-07T04:51:19.832Z,13.00
2018-10-07T04:53:48.088Z,12.96
2018-10-07T04:56:16.380Z,12.95
2018-10-07T04:58:44.669Z,12.97
2018-10-07T05:01:13.154Z,12.95
2018-10-07T05:03:41.728Z,12.96
2018-10-07T05:06:10.067Z,12.95
2018-10-07T05:08:38.695Z,12.96
2018-10-07T05:11:07.051Z,12.92
2018-10-07T05:13:44.001Z,12.85
2018-10-07T05:16:14.806Z,12.85
2018-10-07T05:18:43.982Z,12.85
2018-10-07T05:21:12.518Z,12.81
2018-10-07T05:23:40.855Z,12.76
2018-10-07T05:26:09.858Z,12.80
2018-10-07T05:28:38.172Z,12.77
2018-10-07T05:31:06.841Z,12.74
2018-10-07T05:33:35.201Z,12.73
2018-10-07T05:36:03.524Z,12.68
2018-10-07T05:38:31.869Z,12.70
2018-10-07T05:41:00.160Z,12.62
2018-10-07T05:43:28.438Z,12.57
2018-10-07T05:45:56.716Z,12.54
2018-10-07T05:48:24.988Z,12.53
2018-10-07T05:50:53.335Z,12.54
2018-10-07T05:53:21.619Z,12.55
2018-10-07T05:55:50.214Z,12.55
2018-10-07T05:58:18.684Z,12.61
2018-10-07T06:00:47.162Z,12.67
2018-10-07T06:03:29.770Z,12.76
2018-10-07T06:05:58.214Z,12.78
2018-10-07T06:08:26.574Z,12.78
2018-10-07T06:10:55.171Z,12.85
2018-10-07T06:13:23.599Z,12.97
2018-10-07T06:15:51.893Z,13.03
2018-10-07T06:18:20.241Z,13.14
2018-10-07T06:20:48.592Z,13.11
2018-10-07T06:23:16.871Z,13.12
2018-10-07T06:25:45.319Z,13.17
2018-10-07T06:28:13.616Z,13.21
2018-10-07T06:30:42.013Z,13.28
2018-10-07T06:33:10.485Z,13.40
2018-10-07T06:35:38.791Z,13.49
2018-10-07T06:38:07.115Z,13.60
2018-10-07T06:40:35.507Z,13.64
2018-10-07T06:43:03.933Z,13.69
2018-10-07T06:45:32.300Z,13.81
2018-10-07T06:48:00.557Z,13.92
2018-10-07T06:50:29.173Z,13.98
2018-10-07T06:52:57.795Z,14.00
2018-10-07T06:55:26.377Z,14.16
2018-10-07T06:57:55.041Z,14.26
2018-10-07T07:00:23.440Z,14.36
2018-10-07T07:02:51.710Z,14.48
2018-10-07T07:05:19.957Z,14.68
2018-10-07T07:07:48.256Z,14.77
2018-10-07T07:10:16.596Z,14.85
2018-10-07T07:12:44.972Z,15.04
2018-10-07T07:15:13.280Z,15.12
2018-10-07T07:17:41.599Z,15.31
2018-10-07T07:20:09.941Z,15.48
2018-10-07T07:22:38.212Z,15.56
2018-10-07T07:25:06.513Z,15.66
2018-10-07T07:27:34.972Z,15.82
2018-10-07T07:30:03.586Z,15.85
2018-10-07T07:32:32.210Z,15.90
2018-10-07T07:35:00.885Z,15.95
2018-10-07T07:37:29.306Z,16.13
2018-10-07T07:39:57.607Z,16.12
2018-10-07T07:42:32.669Z,16.38
2018-10-07T07:45:00.892Z,16.48
2018-10-07T07:47:29.199Z,16.66
2018-10-07T07:49:57.673Z,16.77
2018-10-07T07:52:25.990Z,16.92
2018-10-07T07:54:54.451Z,16.98
2018-10-07T07:57:23.176Z,17.19
2018-10-07T07:59:51.561Z,17.32
2018-10-07T08:02:19.979Z,17.39
2018-10-07T08:04:48.361Z,17.55
2018-10-07T08:07:16.697Z,17.66
2018-10-07T08:09:45.060Z,17.82
2018-10-07T08:12:13.511Z,17.98
2018-10-07T08:14:41.806Z,18.09
2018-10-07T08:17:10.320Z,18.40
2018-10-07T08:19:38.612Z,18.34
2018-10-07T08:22:06.949Z,18.36
2018-10-07T08:24:35.250Z,18.60
2018-10-07T08:27:03.571Z,18.76
2018-10-07T08:29:32.027Z,18.91
2018-10-07T08:32:00.260Z,19.23
2018-10-07T08:34:28.566Z,19.20
2018-10-07T08:36:57.718Z,19.40
2018-10-07T08:39:26.197Z,19.34
2018-10-07T08:41:55.236Z,19.32
2018-10-07T08:44:24.059Z,19.37
2018-10-07T08:46:52.412Z,19.38
2018-10-07T08:49:20.848Z,19.33
2018-10-07T08:51:49.321Z,19.48
2018-10-07T08:54:17.702Z,19.48
2018-10-07T08:56:46.070Z,19.43
2018-10-07T08:59:15.800Z,19.59
2018-10-07T09:01:44.189Z,19.59
2018-10-07T09:04:12.496Z,19.86
2018-10-07T09:06:40.922Z,19.87
2018-10-07T09:09:10.229Z,19.74
2018-10-07T09:11:38.708Z,19.82
2018-10-07T09:14:07.075Z,19.84
2018-10-07T09:16:35.588Z,19.79
2018-10-07T09:19:04.189Z,19.95
2018-10-07T09:21:32.600Z,20.18
2018-10-07T09:24:01.726Z,20.33
2018-10-07T09:26:30.299Z,20.39
2018-10-07T09:28:58.766Z,20.50
2018-10-07T09:31:27.549Z,20.65
2018-10-07T09:33:55.860Z,20.42
2018-10-07T09:36:24.257Z,20.06
2018-10-07T09:38:52.663Z,20.09
2018-10-07T09:41:21.088Z,20.03
2018-10-07T09:43:49.518Z,19.96
2018-10-07T09:46:18.058Z,20.18
2018-10-07T09:48:46.500Z,20.64
2018-10-07T09:51:14.985Z,21.01
2018-10-07T09:53:43.945Z,21.11
2018-10-07T09:56:12.277Z,21.57
2018-10-07T09:58:40.823Z,21.83
2018-10-07T10:01:09.264Z,21.91
2018-10-07T10:03:37.623Z,22.22
2018-10-07T10:06:07.043Z,21.99
2018-10-07T10:08:35.284Z,21.88
2018-10-07T10:11:03.969Z,21.94
2018-10-07T10:13:32.390Z,21.77
2018-10-07T10:16:01.878Z,21.96
2018-10-07T10:18:40.831Z,22.00
2018-10-07T10:21:24.288Z,22.22
2018-10-07T10:23:59.834Z,21.94
2018-10-07T10:27:01.352Z,21.97
2018-10-07T10:29:30.442Z,21.89
2018-10-07T10:32:10.596Z,21.84
2018-10-07T10:36:53.953Z,21.91
2018-10-07T10:39:44.107Z,21.82
2018-10-07T10:42:20.214Z,21.81
2018-10-07T10:44:50.333Z,22.09
2018-10-07T10:47:33.118Z,22.43
2018-10-07T10:50:43.182Z,22.32
2018-10-07T10:53:52.408Z,22.35
2018-10-07T10:56:23.887Z,22.34
2018-10-07T10:59:05.264Z,22.37
2018-10-07T11:01:42.564Z,22.25
2018-10-07T11:04:22.295Z,22.04
2018-10-07T11:07:56.508Z,21.79
2018-10-07T11:10:43.010Z,22.46
2018-10-07T11:13:33.548Z,22.40
2018-10-07T11:16:15.139Z,22.60
2018-10-07T11:18:51.937Z,22.87
2018-10-07T11:23:40.679Z,22.67
2018-10-07T11:26:20.014Z,22.99
2018-10-07T11:28:55.940Z,23.58
2018-10-07T11:33:36.951Z,23.90
2018-10-07T11:36:12.865Z,24.57
2018-10-07T11:39:16.301Z,24.81
2018-10-07T11:41:54.486Z,25.53
2018-10-07T11:45:09.639Z,25.96
2018-10-07T11:49:53.945Z,26.18
2018-10-07T11:52:33.468Z,26.85
2018-10-07T11:55:03.947Z,27.56
2018-10-07T11:57:32.368Z,28.26
2018-10-07T12:00:01.068Z,28.81
2018-10-07T12:02:29.518Z,29.45
2018-10-07T12:04:57.856Z,29.75
2018-10-07T12:07:35.927Z,29.51
2018-10-07T12:10:07.888Z,29.05
2018-10-07T12:12:38.476Z,29.28
2018-10-07T12:15:08.124Z,29.99
2018-10-07T12:17:37.060Z,29.99
2018-10-07T12:20:13.937Z,29.41
2018-10-07T12:22:43.700Z,29.43
2018-10-07T12:25:18.963Z,30.15
2018-10-07T12:27:55.203Z,29.38
2018-10-07T12:30:32.106Z,29.49
2018-10-07T12:33:04.326Z,29.69
2018-10-07T12:35:32.621Z,30.23
2018-10-07T12:38:00.940Z,30.36
2018-10-07T12:40:29.344Z,28.60
2018-10-07T12:42:57.621Z,29.14
2018-10-07T12:45:25.968Z,30.58
2018-10-07T12:47:54.270Z,31.32
2018-10-07T12:50:22.713Z,30.35
2018-10-07T12:52:52.100Z,30.83
2018-10-07T12:55:20.615Z,31.66
2018-10-07T12:57:48.876Z,32.26
2018-10-07T13:00:17.264Z,33.09
2018-10-07T13:02:45.556Z,33.39
2018-10-07T13:05:13.843Z,33.56
2018-10-07T13:07:42.112Z,33.02
2018-10-07T13:10:10.533Z,32.95
2018-10-07T13:12:38.800Z,33.37
2018-10-07T13:15:07.116Z,34.36
2018-10-07T13:17:35.455Z,33.33
2018-10-07T13:20:10.465Z,32.20
2018-10-07T13:22:38.736Z,32.82
2018-10-07T13:25:07.060Z,32.57
2018-10-07T13:27:35.366Z,32.14
2018-10-07T13:30:03.674Z,31.95
2018-10-07T13:32:31.989Z,31.68
2018-10-07T13:35:00.268Z,31.58
2018-10-07T13:37:28.555Z,32.19
2018-10-07T13:39:56.833Z,31.80
2018-10-07T13:42:25.121Z,32.16
2018-10-07T13:44:53.410Z,32.06
2018-10-07T13:47:21.661Z,32.80
2018-10-07T13:49:49.899Z,33.06
2018-10-07T13:52:18.171Z,32.69
2018-10-07T13:54:46.465Z,32.21
2018-10-07T13:57:14.726Z,31.95
2018-10-07T13:59:43.017Z,32.84
2018-10-07T14:02:11.331Z,33.41
2018-10-07T14:04:39.562Z,33.98
2018-10-07T14:07:07.888Z,34.48
2018-10-07T14:09:36.093Z,33.35
2018-10-07T14:12:04.363Z,32.15
2018-10-07T14:14:33.139Z,32.08
2018-10-07T14:17:01.444Z,31.04
2018-10-07T14:19:29.744Z,30.29
2018-10-07T14:21:58.013Z,31.02
2018-10-07T14:24:26.319Z,31.52
2018-10-07T14:26:54.629Z,31.30
2018-10-07T14:29:22.928Z,31.58
2018-10-07T14:31:51.238Z,31.00
2018-10-07T14:34:19.484Z,31.11
2018-10-07T14:36:47.834Z,30.58
2018-10-07T14:39:16.164Z,30.53
2018-10-07T14:41:44.411Z,30.18
2018-10-07T14:44:12.722Z,29.61
2018-10-07T14:46:41.085Z,29.51
2018-10-07T14:49:09.439Z,30.02
2018-10-07T14:51:37.761Z,29.80
2018-10-07T14:54:06.101Z,30.33
2018-10-07T14:56:34.387Z,29.39
2018-10-07T14:59:02.698Z,28.84
2018-10-07T15:01:31.016Z,28.62
2018-10-07T15:03:59.256Z,28.17
2018-10-07T15:06:27.558Z,28.83
2018-10-07T15:08:55.843Z,29.11
2018-10-07T15:11:24.176Z,29.82
2018-10-07T15:13:52.416Z,29.01
2018-10-07T15:16:20.687Z,29.11
2018-10-07T15:18:49.098Z,29.40
2018-10-07T15:21:17.495Z,29.31
2018-10-07T15:23:45.829Z,29.30
2018-10-07T15:26:14.090Z,29.03
2018-10-07T15:28:42.364Z,28.26
2018-10-07T15:31:10.692Z,28.53
2018-10-07T15:33:38.972Z,28.38
2018-10-07T15:36:07.266Z,28.44
2018-10-07T15:38:35.536Z,28.56
2018-10-07T15:41:03.999Z,28.29
2018-10-07T15:43:37.054Z,28.08
2018-10-07T15:46:05.623Z,27.47
2018-10-07T15:48:34.160Z,26.60
2018-10-07T15:51:02.421Z,25.70
2018-10-07T15:53:31.121Z,24.98
2018-10-07T15:56:00.530Z,24.55
2018-10-07T15:58:29.198Z,24.23
2018-10-07T16:00:57.829Z,23.81
2018-10-07T16:03:26.634Z,23.41
2018-10-07T16:05:54.923Z,23.28
2018-10-07T16:08:23.225Z,23.18
2018-10-07T16:10:51.507Z,23.00
2018-10-07T16:13:19.783Z,22.90
2018-10-07T16:15:48.602Z,22.73
2018-10-07T16:18:16.979Z,22.62
2018-10-07T16:20:45.300Z,22.40
2018-10-07T16:23:13.700Z,22.15
2018-10-07T16:25:42.150Z,22.02
2018-10-07T16:28:10.579Z,21.88
2018-10-07T16:30:39.140Z,21.77
2018-10-07T16:33:07.437Z,21.62
2018-10-07T16:35:35.872Z,21.47
2018-10-07T16:38:04.173Z,21.34
2018-10-07T16:40:32.595Z,21.28
2018-10-07T16:43:01.303Z,21.10
2018-10-07T16:45:29.578Z,21.00
2018-10-07T16:47:57.956Z,20.79
2018-10-07T16:50:26.271Z,20.73
2018-10-07T16:52:55.696Z,20.62
2018-10-07T16:55:24.067Z,20.50
2018-10-07T16:57:52.524Z,20.40
2018-10-07T17:00:20.952Z,20.31
2018-10-07T17:02:49.478Z,20.22
2018-10-07T17:05:17.961Z,20.16
2018-10-07T17:07:46.471Z,20.05
2018-10-07T17:10:14.863Z,19.98
2018-10-07T17:12:43.372Z,20.00
2018-10-07T17:15:12.273Z,19.94
2018-10-07T17:17:40.567Z,19.85
2018-10-07T17:20:08.838Z,19.75
2018-10-07T17:22:37.158Z,19.74
2018-10-07T17:25:05.564Z,19.63
2018-10-07T17:27:34.333Z,19.56
2018-10-07T17:30:02.841Z,19.41
2018-10-07T17:32:32.153Z,19.28
2018-10-07T17:35:00.476Z,19.28
2018-10-07T17:37:28.785Z,19.24
2018-10-07T17:39:57.158Z,19.23
2018-10-07T17:42:25.817Z,19.15
2018-10-07T17:44:54.701Z,19.11
2018-10-07T17:47:23.665Z,19.07
2018-10-07T17:49:52.156Z,19.05
2018-10-07T17:52:20.665Z,18.97
2018-10-07T17:54:48.993Z,18.88
2018-10-07T17:57:17.544Z,18.82
2018-10-07T17:59:46.081Z,18.75
2018-10-07T18:02:14.369Z,18.72
2018-10-07T18:04:42.684Z,18.68
2018-10-07T18:07:11.223Z,18.57
2018-10-07T18:09:39.550Z,18.51
2018-10-07T18:12:08.008Z,18.53
2018-10-07T18:14:37.084Z,18.47
2018-10-07T18:17:07.838Z,18.43
2018-10-07T18:19:36.174Z,18.41
2018-10-07T18:22:04.644Z,18.36
2018-10-07T18:24:33.481Z,18.38
2018-10-07T18:27:01.892Z,18.35
2018-10-07T18:29:30.212Z,18.29
2018-10-07T18:31:58.572Z,18.26
2018-10-07T18:34:26.959Z,18.15
2018-10-07T18:36:56.366Z,18.03
2018-10-07T18:39:32.996Z,17.98
2018-10-07T18:42:05.022Z,17.87
2018-10-07T18:44:36.171Z,17.77
2018-10-07T18:47:05.653Z,17.67
2018-10-07T18:49:38.934Z,17.55
2018-10-07T18:52:10.072Z,17.41
2018-10-07T18:54:39.246Z,17.32
2018-10-07T18:57:07.979Z,17.19
2018-10-07T18:59:36.393Z,17.10
2018-10-07T19:02:05.310Z,16.99
2018-10-07T19:04:34.235Z,16.91
2018-10-07T19:07:02.534Z,16.92
2018-10-07T19:09:30.909Z,16.83
2018-10-07T19:11:59.591Z,16.77
2018-10-07T19:14:28.149Z,16.75
2018-10-07T19:16:56.487Z,16.65
2018-10-07T19:19:24.763Z,16.69
2018-10-07T19:21:53.180Z,16.61
2018-10-07T19:24:22.544Z,16.58
2018-10-07T19:26:50.965Z,16.54
2018-10-07T19:29:19.241Z,16.56
2018-10-07T19:31:47.546Z,16.68
2018-10-07T19:34:16.024Z,16.63
2018-10-07T19:36:44.518Z,16.65
2018-10-07T19:39:13.127Z,16.56
2018-10-07T19:41:42.223Z,16.57
2018-10-07T19:44:10.655Z,16.55
2018-10-07T19:46:39.030Z,16.53
2018-10-07T19:49:07.423Z,16.60
2018-10-07T19:51:36.061Z,16.59
2018-10-07T19:54:04.417Z,16.68
2018-10-07T19:56:32.680Z,16.69
2018-10-07T19:59:01.149Z,16.63
2018-10-07T20:01:29.515Z,16.66
2018-10-07T20:03:57.892Z,16.70
2018-10-07T20:06:26.776Z,16.65
2018-10-07T20:08:55.023Z,16.62
2018-10-07T20:11:23.423Z,16.58
2018-10-07T20:13:51.877Z,16.52
2018-10-07T20:16:20.214Z,16.53
2018-10-07T20:18:48.538Z,16.50
2018-10-07T20:21:16.975Z,16.58
2018-10-07T20:23:45.393Z,16.53
2018-10-07T20:26:13.884Z,16.52
2018-10-07T20:28:42.183Z,16.43
2018-10-07T20:31:10.448Z,16.41
2018-10-07T20:33:38.751Z,16.35
2018-10-07T20:36:07.350Z,16.29
2018-10-07T20:38:35.694Z,16.31
2018-10-07T20:41:04.280Z,16.23
2018-10-07T20:43:32.543Z,16.15
2018-10-07T20:46:00.862Z,16.09
2018-10-07T20:48:29.244Z,16.05
2018-10-07T20:50:57.662Z,16.00
2018-10-07T20:53:26.088Z,15.95
2018-10-07T20:55:54.414Z,15.85
2018-10-07T20:58:23.038Z,15.76
2018-10-07T21:00:51.514Z,15.71
2018-10-07T21:03:20.005Z,15.65
2018-10-07T21:05:48.749Z,15.59
2018-10-07T21:08:17.955Z,15.51
2018-10-07T21:10:46.784Z,15.43
2018-10-07T21:13:15.206Z,15.36
2018-10-07T21:15:43.652Z,15.31
2018-10-07T21:18:12.062Z,15.31
2018-10-07T21:20:40.484Z,15.36
2018-10-07T21:23:08.946Z,15.34
2018-10-07T21:25:37.377Z,15.31
2018-10-07T21:28:06.515Z,15.24
2018-10-07T21:30:34.876Z,15.15
2018-10-07T21:33:04.493Z,15.06
2018-10-07T21:35:33.308Z,14.99
2018-10-07T21:38:01.932Z,14.96
2018-10-07T21:40:31.553Z,14.95
2018-10-07T21:42:59.976Z,14.88
2018-10-07T21:45:28.732Z,14.83
2018-10-07T21:47:57.013Z,14.74
2018-10-07T21:50:25.520Z,14.68
2018-10-07T21:52:59.253Z,14.61
2018-10-07T21:55:28.647Z,14.54
2018-10-07T21:57:57.317Z,14.54
2018-10-07T22:00:25.794Z,14.47
2018-10-07T22:02:55.137Z,14.43
2018-10-07T22:05:23.610Z,14.45
2018-10-07T22:07:51.867Z,14.48
2018-10-07T22:10:20.215Z,14.48
2018-10-07T22:12:48.827Z,14.46
2018-10-07T22:15:17.194Z,14.39
2018-10-07T22:17:46.562Z,14.39
2018-10-07T22:20:14.941Z,14.39
2018-10-07T22:22:45.360Z,14.35
2018-10-07T22:25:30.308Z,14.30
2018-10-07T22:27:58.839Z,14.17
2018-10-07T22:30:27.592Z,14.08
2018-10-07T22:32:56.920Z,14.05
2018-10-07T22:35:30.796Z,13.93
2018-10-07T22:38:02.620Z,13.88
2018-10-07T22:40:31.184Z,13.79
2018-10-07T22:42:59.919Z,13.77
2018-10-07T22:45:28.357Z,13.82
2018-10-07T22:47:56.748Z,13.81
2018-10-07T22:50:25.243Z,13.80
2018-10-07T22:52:53.731Z,13.77
2018-10-07T22:55:22.166Z,13.77
2018-10-07T22:57:50.580Z,13.70
2018-10-07T23:00:19.122Z,13.69
2018-10-07T23:02:47.484Z,13.65
2018-10-07T23:05:15.949Z,13.67
2018-10-07T23:07:44.402Z,13.64
2018-10-07T23:10:12.824Z,13.61
2018-10-07T23:12:41.284Z,13.62
2018-10-07T23:15:10.459Z,13.60
2018-10-07T23:17:38.959Z,13.53
2018-10-07T23:20:07.494Z,13.48
2018-10-07T23:22:35.920Z,13.37
2018-10-07T23:25:04.385Z,13.33
2018-10-07T23:27:32.882Z,13.29
2018-10-07T23:30:03.418Z,13.23
2018-10-07T23:32:31.887Z,13.15
2018-10-07T23:35:00.271Z,13.06
2018-10-07T23:37:28.837Z,13.00
2018-10-07T23:39:57.236Z,12.96
2018-10-07T23:42:26.362Z,12.92
2018-10-07T23:44:54.786Z,12.85
2018-10-07T23:47:23.296Z,12.79
2018-10-07T23:49:54.861Z,12.72
2018-10-07T23:52:23.392Z,12.69
2018-10-07T23:54:51.806Z,12.74
2018-10-07T23:57:20.197Z,12.76
2018-10-07T23:59:48.683Z,12.68
